createdAt,value
2022-10-26T00:05:24.838Z,9.45
2022-10-26T00:10:56.780Z,9.50
2022-10-26T00:16:28.516Z,9.60
2022-10-26T00:22:00.313Z,9.85
2022-10-26T00:27:32.126Z,9.90
2022-10-26T00:33:03.889Z,9.90
2022-10-26T00:38:35.481Z,10.15
2022-10-26T00:44:07.347Z,10.45
2022-10-26T00:49:38.989Z,10.50
2022-10-26T00:55:16.539Z,10.65
2022-10-26T01:00:48.275Z,10.70
2022-10-26T01:06:20.006Z,10.75
2022-10-26T01:11:51.923Z,10.90
2022-10-26T01:28:27.551Z,11.15
2022-10-26T01:33:59.694Z,11.25
2022-10-26T01:39:31.626Z,11.45
2022-10-26T01:45:03.711Z,11.45
2022-10-26T01:50:35.681Z,11.60
2022-10-26T01:56:10.163Z,11.70
2022-10-26T02:01:41.782Z,11.75
2022-10-26T02:23:49.625Z,11.95
2022-10-26T02:29:21.254Z,12.05
2022-10-26T02:34:53.274Z,12.15
2022-10-26T02:45:56.877Z,12.30
2022-10-26T02:51:28.437Z,12.45
2022-10-26T03:02:32.382Z,12.75
2022-10-26T03:13:36.241Z,12.85
2022-10-26T03:19:08.145Z,12.95
2022-10-26T03:24:40.214Z,13.00
2022-10-26T03:30:12.063Z,13.05
2022-10-26T03:35:45.677Z,13.05
2022-10-26T03:41:17.631Z,13.20
2022-10-26T03:46:49.565Z,13.20
2022-10-26T03:52:21.838Z,13.20
2022-10-26T03:57:53.897Z,13.30
2022-10-26T04:05:38.203Z,3.93
2022-10-26T04:11:10.126Z,2.95
2022-10-26T04:16:42.031Z,2.30
2022-10-26T04:19:06.220Z,1.97
2022-10-26T04:24:38.102Z,0.98
2022-10-26T04:30:09.929Z,1.64
2022-10-26T04:35:41.520Z,1.47
2022-10-26T04:41:13.281Z,1.37
2022-10-26T04:46:45.254Z,1.31
2022-10-26T04:52:17.158Z,1.68
2022-10-26T04:57:49.286Z,1.59
2022-10-26T05:03:21.092Z,1.52
2022-10-26T05:08:53.004Z,1.47
2022-10-26T05:14:24.550Z,1.60
2022-10-26T05:19:55.965Z,1.55
2022-10-26T05:25:27.926Z,1.43
2022-10-26T05:31:05.868Z,1.54
2022-10-26T05:36:37.718Z,1.70
2022-10-26T05:42:09.579Z,1.65
2022-10-26T05:47:41.569Z,1.67
2022-10-26T05:53:13.449Z,1.63
2022-10-26T05:58:45.319Z,1.55
2022-10-26T06:04:17.624Z,1.60
2022-10-26T06:09:49.326Z,1.95
2022-10-26T06:15:21.040Z,2.05
2022-10-26T06:20:52.753Z,2.05
2022-10-26T06:26:24.601Z,2.20
2022-10-26T06:32:02.698Z,2.30
2022-10-26T06:37:34.964Z,2.30
2022-10-26T06:43:07.035Z,2.35
2022-10-26T06:48:38.870Z,2.35
2022-10-26T06:54:16.297Z,2.50
2022-10-26T06:59:48.242Z,2.60
2022-10-26T07:05:20.189Z,2.65
2022-10-26T07:10:52.158Z,2.70
2022-10-26T07:16:23.824Z,2.80
2022-10-26T07:21:55.703Z,2.90
2022-10-26T07:27:27.521Z,3.05
2022-10-26T07:38:28.825Z,3.30
2022-10-26T07:44:00.905Z,3.40
2022-10-26T07:49:33.139Z,3.55
2022-10-26T07:55:04.858Z,3.60
2022-10-26T08:00:36.848Z,3.90
2022-10-26T08:06:08.545Z,4.00
2022-10-26T08:11:40.169Z,4.00
2022-10-26T08:17:12.085Z,4.10
2022-10-26T08:22:43.936Z,4.25
2022-10-26T08:28:16.022Z,4.25
2022-10-26T08:33:49.565Z,4.40
2022-10-26T08:39:21.880Z,4.50
2022-10-26T08:44:53.584Z,4.55
2022-10-26T08:50:25.440Z,4.65
2022-10-26T08:55:57.151Z,4.75
2022-10-26T09:01:29.272Z,4.80
2022-10-26T09:07:01.553Z,5.00
2022-10-26T09:12:33.356Z,5.10
2022-10-26T09:18:06.299Z,5.10
2022-10-26T09:34:38.007Z,5.25
2022-10-26T09:40:10.181Z,5.30
2022-10-26T09:45:42.368Z,5.35
2022-10-26T09:51:14.378Z,5.50
2022-10-26T09:56:46.380Z,5.70
2022-10-26T10:07:47.860Z,5.85
2022-10-26T10:13:19.615Z,6.00
2022-10-26T10:18:51.417Z,6.15
2022-10-26T10:24:25.887Z,6.20
2022-10-26T10:35:29.709Z,6.40
2022-10-26T10:46:33.798Z,6.55
2022-10-26T10:52:06.170Z,6.60
2022-10-26T10:57:38.078Z,6.70
2022-10-26T11:08:42.382Z,6.95
2022-10-26T11:14:14.621Z,7.15
2022-10-26T11:19:46.895Z,7.30
2022-10-26T11:25:18.881Z,7.40
2022-10-26T11:30:50.981Z,7.55
2022-10-26T11:36:23.046Z,7.60
2022-10-26T11:41:54.844Z,7.75
2022-10-26T11:47:26.537Z,7.75
2022-10-26T12:04:02.324Z,8.20
2022-10-26T12:15:06.410Z,8.40
2022-10-26T12:20:38.275Z,8.60
2022-10-26T12:26:10.324Z,8.70
2022-10-26T12:31:48.375Z,8.75
2022-10-26T12:42:54.228Z,8.95
2022-10-26T12:53:57.815Z,9.15
2022-10-26T13:10:33.219Z,9.55
2022-10-26T13:16:05.062Z,9.60
2022-10-26T13:21:36.956Z,9.70
2022-10-26T13:27:08.737Z,9.80
2022-10-26T13:32:40.414Z,9.95
2022-10-26T13:38:12.057Z,9.95
2022-10-26T13:43:43.920Z,10.10
2022-10-26T13:49:15.565Z,10.25
2022-10-26T13:54:47.463Z,10.35
2022-10-26T14:00:23.363Z,10.45
2022-10-26T14:11:26.993Z,10.80
2022-10-26T14:16:58.722Z,10.90
2022-10-26T14:22:30.837Z,10.95
2022-10-26T14:28:12.084Z,11.00
2022-10-26T14:33:44.397Z,11.05
2022-10-26T14:39:16.238Z,11.05
2022-10-26T14:44:48.149Z,11.05
2022-10-26T14:50:19.851Z,11.10
2022-10-26T14:55:51.636Z,11.15
2022-10-26T15:01:23.820Z,11.20
2022-10-26T15:06:55.801Z,11.30
2022-10-26T15:12:27.556Z,11.40
2022-10-26T15:18:00.043Z,11.55
2022-10-26T15:23:31.886Z,11.65
2022-10-26T15:29:03.773Z,11.95
2022-10-26T15:34:36.178Z,12.00
2022-10-26T15:40:08.213Z,12.05
2022-10-26T15:45:40.178Z,12.10
2022-10-26T15:51:12.025Z,12.20
2022-10-26T16:02:14.233Z,12.30
2022-10-26T16:07:45.923Z,12.35
2022-10-26T16:13:17.774Z,12.35
2022-10-26T16:18:51.106Z,12.50
2022-10-26T16:24:21.911Z,12.55
2022-10-26T16:29:53.795Z,12.55
2022-10-26T16:35:25.976Z,12.75
2022-10-26T16:40:58.006Z,12.90
2022-10-26T16:46:30.055Z,13.00
2022-10-26T16:52:02.044Z,13.00
2022-10-26T16:57:33.760Z,13.00
2022-10-26T17:03:05.806Z,13.05
2022-10-26T17:08:38.182Z,13.10
2022-10-26T17:14:10.438Z,13.15
2022-10-26T17:19:42.714Z,13.40
2022-10-26T17:25:15.388Z,13.45
2022-10-26T17:30:47.415Z,13.65
2022-10-26T17:33:00.200Z,0.98
2022-10-26T17:38:31.923Z,0.98
2022-10-26T17:44:03.907Z,1.31
2022-10-26T17:49:36.405Z,2.45
2022-10-26T17:55:07.807Z,2.55
2022-10-26T18:00:39.846Z,2.62
2022-10-26T18:06:11.606Z,2.38
2022-10-26T18:11:43.871Z,2.20
2022-10-26T18:17:16.134Z,2.18
2022-10-26T18:22:48.409Z,2.55
2022-10-26T18:28:20.159Z,2.32
2022-10-26T18:33:52.189Z,2.20
2022-10-26T18:39:24.383Z,2.26
2022-10-26T18:50:28.208Z,2.22
2022-10-26T18:56:00.183Z,2.32
2022-10-26T19:01:32.490Z,2.19
2022-10-26T19:07:04.548Z,2.23
2022-10-26T19:12:36.400Z,2.27
2022-10-26T19:18:08.080Z,2.30
2022-10-26T19:23:39.933Z,2.40
2022-10-26T19:29:11.689Z,2.45
2022-10-26T19:34:43.276Z,2.45
2022-10-26T19:40:15.245Z,2.60
2022-10-26T19:45:46.922Z,2.70
2022-10-26T19:51:18.776Z,2.90
2022-10-26T19:56:50.599Z,3.15
2022-10-26T20:02:22.629Z,3.20
2022-10-26T20:07:54.643Z,3.40
2022-10-26T20:13:26.420Z,3.40
2022-10-26T20:18:58.258Z,3.50
2022-10-26T20:24:29.973Z,3.60
2022-10-26T20:30:01.626Z,3.65
2022-10-26T20:35:33.390Z,3.65
2022-10-26T20:41:07.915Z,3.70
2022-10-26T20:46:37.746Z,3.75
2022-10-26T20:52:20.780Z,3.75
2022-10-26T20:57:41.023Z,3.80
2022-10-26T21:03:12.958Z,3.85
2022-10-26T21:08:44.619Z,3.95
2022-10-26T21:14:16.583Z,4.10
2022-10-26T21:19:48.421Z,4.25
2022-10-26T21:25:20.176Z,4.35
2022-10-26T21:33:13.078Z,3.00
2022-10-26T21:38:44.767Z,1.97
2022-10-26T21:44:25.982Z,1.64
2022-10-26T21:49:48.394Z,1.48
2022-10-26T21:55:20.194Z,1.18
2022-10-26T22:00:52.063Z,1.14
2022-10-26T22:06:23.947Z,1.26
2022-10-26T22:11:55.539Z,1.71
2022-10-26T22:17:27.080Z,1.74
2022-10-26T22:23:00.446Z,1.57
2022-10-26T22:28:33.112Z,1.60
2022-10-26T22:34:07.334Z,1.47
2022-10-26T22:39:35.770Z,1.43
2022-10-26T22:45:07.586Z,1.54
2022-10-26T22:50:39.569Z,1.70
2022-10-26T22:56:11.033Z,1.78
2022-10-26T23:01:42.755Z,1.90
2022-10-26T23:07:14.568Z,1.90
2022-10-26T23:15:07.280Z,1.00
2022-10-26T23:20:39.241Z,0.98
2022-10-26T23:26:10.839Z,1.31
2022-10-26T23:31:42.603Z,1.23
2022-10-26T23:37:14.757Z,1.76
2022-10-26T23:42:46.502Z,1.63
2022-10-26T23:48:18.221Z,1.54
2022-10-26T23:53:50.229Z,1.47
2022-10-26T23:59:22.046Z,1.42
